createdAt,value
2018-05-27T00:00:04.797Z,0.00
2018-05-27T00:01:04.847Z,0.00
2018-05-27T00:02:05.503Z,0.00
2018-05-27T00:03:04.955Z,0.00
2018-05-27T00:04:05.030Z,0.00
2018-05-27T00:05:05.053Z,0.00
2018-05-27T00:06:05.103Z,0.00
2018-05-27T00:07:05.156Z,0.00
2018-05-27T00:08:05.207Z,0.00
2018-05-27T00:09:05.281Z,0.00
2018-05-27T00:10:05.336Z,0.00
2018-05-27T00:11:05.358Z,0.00
2018-05-27T00:12:05.410Z,0.00
2018-05-27T00:13:05.461Z,0.00
2018-05-27T00:14:05.512Z,0.00
2018-05-27T00:15:05.602Z,0.00
2018-05-27T00:16:05.611Z,0.00
2018-05-27T00:17:05.665Z,0.00
2018-05-27T00:18:05.713Z,0.00
2018-05-27T00:19:05.765Z,0.00
2018-05-27T00:20:05.839Z,0.00
2018-05-27T00:21:05.891Z,0.00
2018-05-27T00:22:05.919Z,0.00
2018-05-27T00:23:05.970Z,0.00
2018-05-27T00:24:06.022Z,0.00
2018-05-27T00:25:07.012Z,0.00
2018-05-27T00:26:06.148Z,0.00
2018-05-27T00:27:06.175Z,0.00
2018-05-27T00:28:06.223Z,0.00
2018-05-27T00:29:06.277Z,0.00
2018-05-27T00:30:06.326Z,0.00
2018-05-27T00:31:06.402Z,0.00
2018-05-27T00:32:06.428Z,0.00
2018-05-27T00:33:06.483Z,0.00
2018-05-27T00:34:06.532Z,0.00
2018-05-27T00:35:06.581Z,0.00
2018-05-27T00:36:06.664Z,0.00
2018-05-27T00:37:06.683Z,0.00
2018-05-27T00:38:06.734Z,0.00
2018-05-27T00:39:06.788Z,0.00
2018-05-27T00:40:06.836Z,0.00
2018-05-27T00:41:06.910Z,0.00
2018-05-27T00:42:06.938Z,0.00
2018-05-27T00:43:06.993Z,0.00
2018-05-27T00:44:07.039Z,0.00
2018-05-27T00:45:07.093Z,0.00
2018-05-27T00:46:07.170Z,0.00
2018-05-27T00:47:07.228Z,0.00
2018-05-27T00:48:07.245Z,0.00
2018-05-27T00:49:07.298Z,0.00
2018-05-27T00:50:07.351Z,0.00
2018-05-27T00:51:07.398Z,0.00
2018-05-27T00:52:07.478Z,0.00
2018-05-27T00:53:07.525Z,0.00
2018-05-27T00:54:07.551Z,0.00
2018-05-27T00:55:07.605Z,0.00
2018-05-27T00:56:07.657Z,0.00
2018-05-27T00:57:07.704Z,0.00
2018-05-27T00:58:07.781Z,0.00
2018-05-27T00:59:07.806Z,0.00
2018-05-27T01:00:07.858Z,0.00
2018-05-27T01:01:07.910Z,0.00
2018-05-27T01:02:07.958Z,0.00
2018-05-27T01:03:08.035Z,0.00
2018-05-27T01:04:08.084Z,0.00
2018-05-27T01:05:08.153Z,0.00
2018-05-27T01:06:08.165Z,0.00
2018-05-27T01:07:08.235Z,0.00
2018-05-27T01:08:09.366Z,0.00
2018-05-27T01:09:09.545Z,0.00
2018-05-27T01:10:09.031Z,0.00
2018-05-27T01:11:09.147Z,0.00
2018-05-27T01:12:09.129Z,0.00
2018-05-27T01:13:09.014Z,0.00
2018-05-27T01:14:09.606Z,0.00
2018-05-27T01:15:08.974Z,0.00
2018-05-27T01:16:09.087Z,0.00
2018-05-27T01:17:09.067Z,0.00
2018-05-27T01:18:09.165Z,0.00
2018-05-27T01:19:09.202Z,0.00
2018-05-27T01:20:09.560Z,0.00
2018-05-27T01:21:08.932Z,0.00
2018-05-27T01:22:08.986Z,0.00
2018-05-27T01:23:09.036Z,0.00
2018-05-27T01:24:09.091Z,0.00
2018-05-27T01:25:09.159Z,0.00
2018-05-27T01:26:09.188Z,0.00
2018-05-27T01:27:09.239Z,0.00
2018-05-27T01:28:09.290Z,0.00
2018-05-27T01:29:09.342Z,0.00
2018-05-27T01:30:09.430Z,0.00
2018-05-27T01:31:09.446Z,0.00
2018-05-27T01:32:09.497Z,0.00
2018-05-27T01:33:09.548Z,0.00
2018-05-27T01:34:09.599Z,0.00
2018-05-27T01:35:09.692Z,0.00
2018-05-27T01:36:09.705Z,0.00
2018-05-27T01:37:09.760Z,0.00
2018-05-27T01:38:09.804Z,0.00
2018-05-27T01:39:09.857Z,0.00
2018-05-27T01:40:09.939Z,0.00
2018-05-27T01:41:09.957Z,0.00
2018-05-27T01:42:10.009Z,0.00
2018-05-27T01:43:10.062Z,0.00
2018-05-27T01:44:10.110Z,0.00
2018-05-27T01:45:10.194Z,0.00
2018-05-27T01:46:10.213Z,0.00
2018-05-27T01:47:10.265Z,0.00
2018-05-27T01:48:10.317Z,0.00
2018-05-27T01:49:10.366Z,0.00
2018-05-27T01:50:10.460Z,0.00
2018-05-27T01:51:10.471Z,0.00
2018-05-27T01:52:10.525Z,0.00
2018-05-27T01:53:10.572Z,0.00
2018-05-27T01:54:10.623Z,0.00
2018-05-27T01:55:10.697Z,0.00
2018-05-27T01:56:10.747Z,0.00
2018-05-27T01:57:10.783Z,0.00
2018-05-27T01:58:10.828Z,0.00
2018-05-27T01:59:10.877Z,0.00
2018-05-27T02:00:10.930Z,0.00
2018-05-27T02:01:11.003Z,0.00
2018-05-27T02:02:11.030Z,0.00
2018-05-27T02:03:11.087Z,0.00
2018-05-27T02:04:11.137Z,0.00
2018-05-27T02:05:11.187Z,0.00
2018-05-27T02:06:11.259Z,0.00
2018-05-27T02:07:11.311Z,0.00
2018-05-27T02:08:11.337Z,0.00
2018-05-27T02:09:11.388Z,0.00
2018-05-27T02:10:11.440Z,0.00
2018-05-27T02:11:11.523Z,0.00
2018-05-27T02:12:11.541Z,0.00
2018-05-27T02:13:11.592Z,0.00
2018-05-27T02:14:11.642Z,0.00
2018-05-27T02:15:11.694Z,0.00
2018-05-27T02:16:11.774Z,0.00
2018-05-27T02:17:11.798Z,0.00
2018-05-27T02:18:11.850Z,0.00
2018-05-27T02:19:39.542Z,0.00
2018-05-27T02:20:11.949Z,0.00
2018-05-27T02:21:12.023Z,0.00
2018-05-27T02:22:12.088Z,0.00
2018-05-27T02:23:12.104Z,0.00
2018-05-27T02:24:12.156Z,0.00
2018-05-27T02:25:12.210Z,0.00
2018-05-27T02:26:12.257Z,0.00
2018-05-27T02:27:12.334Z,0.00
2018-05-27T02:28:12.363Z,0.00
2018-05-27T02:29:12.407Z,0.00
2018-05-27T02:30:12.463Z,0.00
2018-05-27T02:31:12.509Z,0.00
2018-05-27T02:32:12.582Z,0.00
2018-05-27T02:33:12.634Z,0.00
2018-05-27T02:34:12.671Z,0.00
2018-05-27T02:35:12.714Z,0.00
2018-05-27T02:36:12.763Z,0.00
2018-05-27T02:37:12.816Z,0.00
2018-05-27T02:38:12.888Z,0.00
2018-05-27T02:39:12.918Z,0.00
2018-05-27T02:40:12.968Z,0.00
2018-05-27T02:41:13.020Z,0.00
2018-05-27T02:42:13.070Z,0.00
2018-05-27T02:43:13.146Z,0.00
2018-05-27T02:44:13.170Z,0.00
2018-05-27T02:45:13.221Z,0.00
2018-05-27T02:46:13.276Z,0.00
2018-05-27T02:47:13.328Z,0.00
2018-05-27T02:48:13.397Z,0.00
2018-05-27T02:49:13.425Z,0.00
2018-05-27T02:50:13.476Z,0.00
2018-05-27T02:51:13.527Z,0.00
2018-05-27T02:52:13.578Z,0.00
2018-05-27T02:53:13.655Z,0.00
2018-05-27T02:54:13.685Z,0.00
2018-05-27T02:55:13.733Z,0.00
2018-05-27T02:56:13.781Z,4.00
2018-05-27T02:57:13.832Z,4.00
2018-05-27T02:58:13.910Z,0.00
2018-05-27T02:59:13.970Z,4.00
2018-05-27T03:00:13.987Z,4.00
2018-05-27T03:01:14.037Z,4.00
2018-05-27T03:02:14.089Z,4.00
2018-05-27T03:03:14.137Z,4.00
2018-05-27T03:04:14.219Z,4.00
2018-05-27T03:05:14.241Z,8.00
2018-05-27T03:06:14.292Z,8.00
2018-05-27T03:07:14.350Z,12.00
2018-05-27T03:08:14.391Z,12.00
2018-05-27T03:09:14.469Z,16.00
2018-05-27T03:10:14.518Z,16.00
2018-05-27T03:11:14.545Z,16.00
2018-05-27T03:12:14.598Z,20.00
2018-05-27T03:13:14.644Z,24.00
2018-05-27T03:14:14.700Z,28.00
2018-05-27T03:15:14.774Z,32.00
2018-05-27T03:16:14.797Z,40.00
2018-05-27T03:17:14.850Z,44.00
2018-05-27T03:18:14.900Z,48.00
2018-05-27T03:19:14.950Z,56.00
2018-05-27T03:20:15.027Z,64.00
2018-05-27T03:21:15.053Z,72.00
2018-05-27T03:22:15.104Z,84.00
2018-05-27T03:23:15.154Z,96.00
2018-05-27T03:24:15.206Z,108.00
2018-05-27T03:25:15.279Z,124.00
2018-05-27T03:26:15.332Z,140.00
2018-05-27T03:27:15.357Z,156.00
2018-05-27T03:28:15.407Z,172.00
2018-05-27T03:29:15.457Z,188.00
2018-05-27T03:30:15.509Z,212.00
2018-05-27T03:31:15.585Z,236.00
2018-05-27T03:32:15.612Z,272.00
2018-05-27T03:33:15.662Z,304.00
2018-05-27T03:34:15.716Z,344.00
2018-05-27T03:35:15.763Z,388.00
2018-05-27T03:36:15.842Z,444.00
2018-05-27T03:37:15.865Z,516.00
2018-05-27T03:38:15.915Z,604.00
2018-05-27T03:39:15.967Z,704.00
2018-05-27T03:40:16.017Z,820.00
2018-05-27T03:41:16.121Z,944.00
2018-05-27T03:42:16.120Z,1076.00
2018-05-27T03:43:16.172Z,1220.00
2018-05-27T03:44:16.220Z,1360.00
2018-05-27T03:45:16.271Z,1508.00
2018-05-27T03:46:16.355Z,1652.00
2018-05-27T03:47:16.373Z,1776.00
2018-05-27T03:48:16.424Z,1904.00
2018-05-27T03:49:16.474Z,2016.00
2018-05-27T03:50:16.524Z,2128.00
2018-05-27T03:51:16.619Z,2236.00
2018-05-27T03:52:16.627Z,2332.00
2018-05-27T03:53:16.679Z,2432.00
2018-05-27T03:54:16.731Z,2536.00
2018-05-27T03:55:16.781Z,2648.00
2018-05-27T03:56:16.867Z,2776.00
2018-05-27T03:57:16.884Z,2916.00
2018-05-27T03:58:16.932Z,3064.00
2018-05-27T03:59:16.983Z,3220.00
2018-05-27T04:00:17.032Z,3376.00
2018-05-27T04:01:17.112Z,3540.00
2018-05-27T04:02:17.133Z,3688.00
2018-05-27T04:03:17.187Z,3828.00
2018-05-27T04:04:17.236Z,3956.00
2018-05-27T04:05:17.287Z,4072.00
2018-05-27T04:06:17.364Z,4180.00
2018-05-27T04:07:17.395Z,4276.00
2018-05-27T04:08:17.443Z,4372.00
2018-05-27T04:09:17.492Z,4456.00
2018-05-27T04:10:17.541Z,4544.00
2018-05-27T04:11:17.616Z,4604.00
2018-05-27T04:12:17.642Z,4652.00
2018-05-27T04:13:17.715Z,4676.00
2018-05-27T04:14:17.749Z,4688.00
2018-05-27T04:15:17.797Z,4676.00
2018-05-27T04:16:17.846Z,4664.00
2018-05-27T04:17:17.919Z,4652.00
2018-05-27T04:18:17.971Z,4636.00
2018-05-27T04:19:18.002Z,4604.00
2018-05-27T04:20:18.051Z,4584.00
2018-05-27T04:21:18.101Z,4564.00
2018-05-27T04:22:18.151Z,4552.00
2018-05-27T04:23:18.278Z,4532.00
2018-05-27T04:24:18.254Z,4524.00
2018-05-27T04:25:18.308Z,4520.00
2018-05-27T04:26:18.357Z,4516.00
2018-05-27T04:27:18.410Z,4504.00
2018-05-27T04:28:18.526Z,4492.00
2018-05-27T04:29:18.509Z,4480.00
2018-05-27T04:30:18.559Z,4484.00
2018-05-27T04:31:18.613Z,4480.00
2018-05-27T04:32:18.665Z,4468.00
2018-05-27T04:33:18.739Z,4456.00
2018-05-27T04:34:18.766Z,4436.00
2018-05-27T04:35:18.815Z,4432.00
2018-05-27T04:36:18.864Z,4424.00
2018-05-27T04:37:18.916Z,4416.00
2018-05-27T04:38:18.993Z,4420.00
2018-05-27T04:39:19.018Z,4424.00
2018-05-27T04:40:19.093Z,4432.00
2018-05-27T04:41:19.121Z,4440.00
2018-05-27T04:42:19.170Z,4460.00
2018-05-27T04:43:19.224Z,4476.00
2018-05-27T04:44:19.272Z,4496.00
2018-05-27T04:45:19.349Z,4520.00
2018-05-27T04:46:19.374Z,4552.00
2018-05-27T04:47:19.430Z,4588.00
2018-05-27T04:48:19.480Z,4612.00
2018-05-27T04:49:19.530Z,4656.00
2018-05-27T04:50:19.603Z,4700.00
2018-05-27T04:51:19.655Z,4732.00
2018-05-27T04:52:19.681Z,4744.00
2018-05-27T04:53:19.740Z,4740.00
2018-05-27T04:54:19.782Z,4744.00
2018-05-27T04:55:19.861Z,4744.00
2018-05-27T04:56:19.911Z,4744.00
2018-05-27T04:57:19.936Z,4744.00
2018-05-27T04:58:19.989Z,4732.00
2018-05-27T04:59:20.047Z,4720.00
2018-05-27T05:00:20.090Z,4712.00
2018-05-27T05:01:20.185Z,4708.00
2018-05-27T05:02:20.195Z,4700.00
2018-05-27T05:03:20.242Z,4696.00
2018-05-27T05:04:20.295Z,4700.00
2018-05-27T05:05:20.344Z,4712.00
2018-05-27T05:06:20.429Z,4724.00
2018-05-27T05:07:20.446Z,4700.00
2018-05-27T05:08:20.499Z,4688.00
2018-05-27T05:09:20.551Z,4700.00
2018-05-27T05:10:20.599Z,4716.00
2018-05-27T05:11:20.677Z,4748.00
2018-05-27T05:12:20.725Z,4784.00
2018-05-27T05:13:20.752Z,4824.00
2018-05-27T05:14:20.805Z,4856.00
2018-05-27T05:15:20.859Z,4896.00
2018-05-27T05:16:20.910Z,4948.00
2018-05-27T05:17:20.996Z,5004.00
2018-05-27T05:18:21.017Z,5076.00
2018-05-27T05:19:21.059Z,5156.00
2018-05-27T05:20:21.110Z,5256.00
2018-05-27T05:21:21.163Z,5364.00
2018-05-27T05:22:21.239Z,5492.00
2018-05-27T05:23:21.266Z,5640.00
2018-05-27T05:24:21.331Z,5796.00
2018-05-27T05:25:21.365Z,5960.00
2018-05-27T05:26:21.424Z,6140.00
2018-05-27T05:27:21.496Z,6332.00
2018-05-27T05:28:21.542Z,6532.00
2018-05-27T05:29:21.568Z,6736.00
2018-05-27T05:30:21.619Z,6948.00
2018-05-27T05:31:21.670Z,7160.00
2018-05-27T05:32:21.721Z,7376.00
2018-05-27T05:33:21.798Z,7584.00
2018-05-27T05:34:21.822Z,7768.00
2018-05-27T05:35:21.877Z,7964.00
2018-05-27T05:36:21.978Z,8144.00
2018-05-27T05:37:21.976Z,8316.00
2018-05-27T05:38:22.053Z,8460.00
2018-05-27T05:39:22.101Z,8608.00
2018-05-27T05:40:22.132Z,8748.00
2018-05-27T05:41:22.184Z,8892.00
2018-05-27T05:42:22.234Z,9048.00
2018-05-27T05:43:22.283Z,9204.00
2018-05-27T05:44:22.356Z,9372.00
2018-05-27T05:45:22.389Z,9524.00
2018-05-27T05:46:22.439Z,9692.00
2018-05-27T05:47:22.485Z,9880.00
2018-05-27T05:48:22.538Z,10084.00
2018-05-27T05:49:22.677Z,10292.00
2018-05-27T05:50:22.638Z,10516.00
2018-05-27T05:51:22.690Z,10760.00
2018-05-27T05:52:22.740Z,11044.00
2018-05-27T05:53:22.791Z,11316.00
2018-05-27T05:54:22.876Z,11604.00
2018-05-27T05:55:22.893Z,11884.00
2018-05-27T05:56:22.945Z,12132.00
2018-05-27T05:57:22.996Z,12400.00
2018-05-27T05:58:23.048Z,12700.00
2018-05-27T05:59:23.131Z,13008.00
2018-05-27T06:00:23.151Z,13320.00
2018-05-27T06:01:23.201Z,13652.00
2018-05-27T06:02:23.252Z,13964.00
2018-05-27T06:03:23.303Z,14316.00
2018-05-27T06:04:23.407Z,14652.00
2018-05-27T06:05:23.405Z,14972.00
2018-05-27T06:06:23.458Z,15300.00
2018-05-27T06:07:23.508Z,15620.00
2018-05-27T06:08:23.559Z,15936.00
2018-05-27T06:09:23.637Z,16240.00
2018-05-27T06:10:23.683Z,16536.00
2018-05-27T06:11:23.713Z,16812.00
2018-05-27T06:12:23.770Z,17028.00
2018-05-27T06:13:23.816Z,17312.00
2018-05-27T06:14:23.868Z,17440.00
2018-05-27T06:15:23.944Z,17600.00
2018-05-27T06:16:23.970Z,17792.00
2018-05-27T06:17:24.022Z,17824.00
2018-05-27T06:18:24.072Z,17856.00
2018-05-27T06:19:24.126Z,17792.00
2018-05-27T06:20:24.200Z,17664.00
2018-05-27T06:21:24.227Z,17504.00
2018-05-27T06:22:24.280Z,17344.00
2018-05-27T06:23:24.335Z,17120.00
2018-05-27T06:24:24.394Z,16984.00
2018-05-27T06:25:24.461Z,16876.00
2018-05-27T06:26:24.517Z,16780.00
2018-05-27T06:27:24.537Z,16692.00
2018-05-27T06:28:24.588Z,16612.00
2018-05-27T06:29:24.639Z,16552.00
2018-05-27T06:30:24.690Z,16512.00
2018-05-27T06:31:24.766Z,16440.00
2018-05-27T06:32:24.794Z,16396.00
2018-05-27T06:33:24.845Z,16368.00
2018-05-27T06:34:24.897Z,16360.00
2018-05-27T06:35:24.950Z,16340.00
2018-05-27T06:36:25.024Z,16376.00
2018-05-27T06:37:25.052Z,16424.00
2018-05-27T06:38:25.107Z,16496.00
2018-05-27T06:39:25.176Z,16568.00
2018-05-27T06:40:25.208Z,16676.00
2018-05-27T06:41:25.288Z,16792.00
2018-05-27T06:42:25.309Z,16896.00
2018-05-27T06:43:25.394Z,17052.00
2018-05-27T06:44:25.416Z,17212.00
2018-05-27T06:45:25.465Z,17536.00
2018-05-27T06:46:25.519Z,17792.00
2018-05-27T06:47:25.569Z,18112.00
2018-05-27T06:48:25.643Z,18464.00
2018-05-27T06:49:25.677Z,18848.00
2018-05-27T06:50:25.724Z,19296.00
2018-05-27T06:51:25.777Z,19680.00
2018-05-27T06:52:25.865Z,20096.00
2018-05-27T06:53:25.881Z,20480.00
2018-05-27T06:54:25.933Z,20832.00
2018-05-27T06:55:25.983Z,21184.00
2018-05-27T06:56:26.037Z,21536.00
2018-05-27T06:57:26.119Z,21856.00
2018-05-27T06:58:26.142Z,22112.00
2018-05-27T06:59:26.191Z,22400.00
2018-05-27T07:00:26.243Z,22720.00
2018-05-27T07:01:26.295Z,23200.00
2018-05-27T07:02:26.662Z,23808.00
2018-05-27T07:03:26.399Z,24512.00
2018-05-27T07:04:26.499Z,25376.00
2018-05-27T07:05:26.502Z,26272.00
2018-05-27T07:06:26.554Z,27200.00
2018-05-27T07:07:26.645Z,28128.00
2018-05-27T07:08:26.666Z,28960.00
2018-05-27T07:09:26.712Z,29376.00
2018-05-27T07:10:26.761Z,29376.00
2018-05-27T07:11:26.815Z,29536.00
2018-05-27T07:12:26.895Z,29536.00
2018-05-27T07:13:26.918Z,28256.00
2018-05-27T07:14:26.971Z,26944.00
2018-05-27T07:15:27.027Z,25984.00
2018-05-27T07:16:27.074Z,25632.00
2018-05-27T07:17:27.150Z,25824.00
2018-05-27T07:18:27.180Z,26336.00
2018-05-27T07:19:27.274Z,27040.00
2018-05-27T07:20:27.284Z,28032.00
2018-05-27T07:21:27.337Z,29440.00
2018-05-27T07:22:27.389Z,32384.00
2018-05-27T07:23:27.444Z,35872.00
2018-05-27T07:24:27.521Z,36928.00
2018-05-27T07:25:27.547Z,38560.00
2018-05-27T07:26:27.600Z,36832.00
2018-05-27T07:27:27.651Z,34592.00
2018-05-27T07:28:27.727Z,35552.00
2018-05-27T07:29:27.760Z,33600.00
2018-05-27T07:30:27.811Z,34112.00
2018-05-27T07:31:27.864Z,34528.00
2018-05-27T07:32:27.916Z,33888.00
2018-05-27T07:33:27.991Z,37152.00
2018-05-27T07:34:28.018Z,36352.00
2018-05-27T07:35:28.102Z,34912.00
2018-05-27T07:36:28.123Z,35552.00
2018-05-27T07:37:28.181Z,36384.00
2018-05-27T07:38:28.234Z,34944.00
2018-05-27T07:39:28.287Z,34464.00
2018-05-27T07:40:28.361Z,35840.00
2018-05-27T07:41:28.393Z,41440.00
2018-05-27T07:42:28.445Z,42080.00
2018-05-27T07:43:28.493Z,41152.00
2018-05-27T07:44:28.546Z,40352.00
2018-05-27T07:45:28.625Z,46336.00
2018-05-27T07:46:28.654Z,51424.00
2018-05-27T07:47:28.706Z,46272.00
2018-05-27T07:48:28.766Z,57568.00
2018-05-27T07:49:28.840Z,46112.00
2018-05-27T07:50:28.866Z,41696.00
2018-05-27T07:51:28.918Z,42176.00
2018-05-27T07:52:29.011Z,43264.00
2018-05-27T07:53:29.036Z,50112.00
2018-05-27T07:54:29.111Z,46976.00
2018-05-27T07:55:29.128Z,45280.00
2018-05-27T07:56:29.183Z,47136.00
2018-05-27T07:57:29.235Z,44480.00
2018-05-27T07:58:29.350Z,46560.00
2018-05-27T07:59:29.376Z,46048.00
2018-05-27T08:00:29.398Z,48576.00
2018-05-27T08:01:29.452Z,47776.00
2018-05-27T08:02:29.503Z,47200.00
2018-05-27T08:03:29.553Z,44832.00
2018-05-27T08:04:29.638Z,43360.00
2018-05-27T08:05:29.664Z,52384.00
2018-05-27T08:06:29.719Z,53952.00
2018-05-27T08:07:29.771Z,59232.00
2018-05-27T08:08:29.824Z,59904.00
2018-05-27T08:09:29.913Z,55200.00
2018-05-27T08:10:29.933Z,52384.00
2018-05-27T08:11:29.987Z,50752.00
2018-05-27T08:12:30.040Z,49184.00
2018-05-27T08:13:30.092Z,48736.00
2018-05-27T08:14:30.172Z,49792.00
2018-05-27T08:15:30.204Z,46688.00
2018-05-27T08:16:30.253Z,49312.00
2018-05-27T08:17:30.330Z,57152.00
2018-05-27T08:18:30.364Z,56896.00
2018-05-27T08:19:30.441Z,56736.00
2018-05-27T08:20:30.487Z,55392.00
2018-05-27T08:21:30.524Z,54688.00
2018-05-27T08:22:30.602Z,54656.00
2018-05-27T08:23:30.635Z,53440.00
2018-05-27T08:24:30.713Z,54816.00
2018-05-27T08:25:30.745Z,57376.00
2018-05-27T08:26:30.795Z,60032.00
2018-05-27T08:27:30.893Z,60704.00
2018-05-27T08:28:30.904Z,67040.00
2018-05-27T08:29:30.964Z,68800.00
2018-05-27T08:30:31.015Z,69056.00
2018-05-27T08:31:31.077Z,66656.00
2018-05-27T08:32:31.148Z,71360.00
2018-05-27T08:33:31.179Z,71136.00
2018-05-27T08:34:31.238Z,69696.00
2018-05-27T08:35:31.326Z,68736.00
2018-05-27T08:36:31.347Z,65216.00
2018-05-27T08:37:31.402Z,68608.00
2018-05-27T08:38:31.497Z,74336.00
2018-05-27T08:39:31.514Z,77312.00
2018-05-27T08:40:31.566Z,81248.00
2018-05-27T08:41:31.624Z,80256.00
2018-05-27T08:42:31.684Z,80352.00
2018-05-27T08:43:31.776Z,78112.00
2018-05-27T08:44:31.797Z,83552.00
2018-05-27T08:45:31.872Z,89664.00
2018-05-27T08:46:31.904Z,94144.00
2018-05-27T08:47:31.961Z,91392.00
2018-05-27T08:48:32.012Z,89696.00
2018-05-27T08:49:32.091Z,90080.00
2018-05-27T08:50:32.126Z,88064.00
2018-05-27T08:51:32.210Z,80000.00
2018-05-27T08:52:32.259Z,76000.00
2018-05-27T08:53:32.294Z,73600.00
2018-05-27T08:54:32.374Z,73312.00
2018-05-27T08:55:32.406Z,71808.00
2018-05-27T08:56:32.463Z,72512.00
2018-05-27T08:57:32.543Z,71680.00
2018-05-27T08:58:32.587Z,67520.00
2018-05-27T08:59:32.663Z,67296.00
2018-05-27T09:00:32.689Z,70528.00
2018-05-27T09:01:32.778Z,71008.00
2018-05-27T09:02:32.801Z,72608.00
2018-05-27T09:03:32.857Z,71200.00
2018-05-27T09:04:32.940Z,76032.00
2018-05-27T09:05:32.974Z,80608.00
2018-05-27T09:06:33.032Z,86304.00
2018-05-27T09:07:33.091Z,88768.00
2018-05-27T09:08:33.143Z,84416.00
2018-05-27T09:09:33.223Z,79712.00
2018-05-27T09:10:33.253Z,78560.00
2018-05-27T09:11:33.312Z,77120.00
2018-05-27T09:12:33.367Z,77952.00
2018-05-27T09:13:33.467Z,78240.00
2018-05-27T09:14:33.483Z,79072.00
2018-05-27T09:15:33.541Z,81472.00
2018-05-27T09:16:33.595Z,84928.00
2018-05-27T09:17:33.652Z,86720.00
2018-05-27T09:18:33.732Z,87072.00
2018-05-27T09:19:33.766Z,86944.00
2018-05-27T09:20:33.848Z,83776.00
2018-05-27T09:21:33.882Z,70208.00
2018-05-27T09:22:33.936Z,71552.00
2018-05-27T09:23:33.996Z,83296.00
2018-05-27T09:24:34.074Z,83936.00
2018-05-27T09:25:34.108Z,87264.00
2018-05-27T09:26:34.166Z,89408.00
2018-05-27T09:27:34.222Z,89568.00
2018-05-27T09:28:34.288Z,93440.00
2018-05-27T09:29:34.361Z,96992.00
2018-05-27T09:30:34.408Z,95904.00
2018-05-27T09:31:34.476Z,93824.00
2018-05-27T09:32:34.509Z,89568.00
2018-05-27T09:33:34.567Z,83712.00
2018-05-27T09:34:34.623Z,78816.00
2018-05-27T09:35:34.679Z,73856.00
2018-05-27T09:36:34.760Z,73344.00
2018-05-27T09:37:34.802Z,74432.00
2018-05-27T09:38:34.853Z,76672.00
2018-05-27T09:39:34.910Z,81664.00
2018-05-27T09:40:35.023Z,83648.00
2018-05-27T09:41:35.027Z,85120.00
2018-05-27T09:42:35.084Z,82688.00
2018-05-27T09:43:35.141Z,82752.00
2018-05-27T09:44:35.199Z,80928.00
2018-05-27T09:45:35.280Z,79936.00
2018-05-27T09:46:35.312Z,78464.00
2018-05-27T09:47:35.395Z,76096.00
2018-05-27T09:48:35.427Z,74656.00
2018-05-27T09:49:35.487Z,77376.00
2018-05-27T09:50:35.555Z,79712.00
2018-05-27T09:51:35.627Z,85856.00
2018-05-27T09:52:35.659Z,88576.00
2018-05-27T09:53:35.745Z,90912.00
2018-05-27T09:54:35.784Z,91296.00
2018-05-27T09:55:35.835Z,90560.00
2018-05-27T09:56:35.917Z,90432.00
2018-05-27T09:57:35.952Z,88096.00
2018-05-27T09:58:36.036Z,80736.00
2018-05-27T09:59:36.066Z,64576.00
2018-05-27T10:00:36.124Z,60448.00
2018-05-27T10:01:36.180Z,71872.00
2018-05-27T10:02:36.243Z,80320.00
2018-05-27T10:03:36.327Z,74336.00
2018-05-27T10:04:36.356Z,65504.00
2018-05-27T10:05:36.413Z,72288.00
2018-05-27T10:06:36.471Z,88224.00
2018-05-27T10:07:36.531Z,91104.00
2018-05-27T10:08:36.611Z,93408.00
2018-05-27T10:09:36.646Z,95616.00
2018-05-27T10:10:36.704Z,88160.00
2018-05-27T10:11:36.761Z,82176.00
2018-05-27T10:12:36.821Z,90784.00
2018-05-27T10:13:36.905Z,86496.00
2018-05-27T10:14:36.934Z,81760.00
2018-05-27T10:15:36.999Z,80000.00
2018-05-27T10:16:37.050Z,78048.00
2018-05-27T10:17:37.108Z,77024.00
2018-05-27T10:18:37.203Z,77024.00
2018-05-27T10:19:37.228Z,75008.00
2018-05-27T10:20:37.282Z,74528.00
2018-05-27T10:21:37.344Z,73728.00
2018-05-27T10:22:37.403Z,75360.00
2018-05-27T10:23:37.482Z,78944.00
2018-05-27T10:24:37.541Z,82784.00
2018-05-27T10:25:37.579Z,86752.00
2018-05-27T10:26:37.633Z,90560.00
2018-05-27T10:27:37.696Z,92224.00
2018-05-27T10:28:37.773Z,91872.00
2018-05-27T10:29:37.809Z,91488.00
2018-05-27T10:30:37.868Z,88352.00
2018-05-27T10:31:37.930Z,90144.00
2018-05-27T10:32:37.985Z,91008.00
2018-05-27T10:33:38.067Z,90080.00
2018-05-27T10:34:38.103Z,88128.00
2018-05-27T10:35:38.185Z,84288.00
2018-05-27T10:36:38.220Z,75456.00
2018-05-27T10:37:38.278Z,69152.00
2018-05-27T10:38:38.335Z,66144.00
2018-05-27T10:39:38.395Z,61568.00
2018-05-27T10:40:38.477Z,57824.00
2018-05-27T10:41:38.520Z,61408.00
2018-05-27T10:42:38.571Z,62208.00
2018-05-27T10:43:38.628Z,59424.00
2018-05-27T10:44:38.686Z,63680.00
2018-05-27T10:45:38.769Z,64832.00
2018-05-27T10:46:38.810Z,67840.00
2018-05-27T10:47:38.864Z,69568.00
2018-05-27T10:48:38.920Z,70304.00
2018-05-27T10:49:39.006Z,70304.00
2018-05-27T10:50:39.041Z,66048.00
2018-05-27T10:51:39.121Z,69280.00
2018-05-27T10:52:39.157Z,75904.00
2018-05-27T10:53:39.212Z,80992.00
2018-05-27T10:54:39.272Z,64000.00
2018-05-27T10:55:39.372Z,89504.00
2018-05-27T10:56:39.390Z,102240.00
2018-05-27T10:57:39.442Z,113120.00
2018-05-27T10:58:39.503Z,120320.00
2018-05-27T10:59:39.560Z,129568.00
2018-05-27T11:00:39.648Z,122720.00
2018-05-27T11:01:39.694Z,115680.00
2018-05-27T11:02:39.731Z,123040.00
2018-05-27T11:03:39.791Z,116544.00
2018-05-27T11:04:39.845Z,102464.00
2018-05-27T11:05:39.988Z,103264.00
2018-05-27T11:06:39.962Z,109472.00
2018-05-27T11:07:40.045Z,107200.00
2018-05-27T11:08:40.081Z,113056.00
2018-05-27T11:09:40.135Z,111936.00
2018-05-27T11:10:40.194Z,104352.00
2018-05-27T11:11:40.273Z,110720.00
2018-05-27T11:12:40.305Z,114144.00
2018-05-27T11:13:40.367Z,116768.00
2018-05-27T11:14:40.418Z,116096.00
2018-05-27T11:15:40.476Z,109664.00
2018-05-27T11:16:40.571Z,102304.00
2018-05-27T11:17:40.592Z,91616.00
2018-05-27T11:18:40.649Z,84864.00
2018-05-27T11:19:40.703Z,77920.00
2018-05-27T11:20:40.769Z,76960.00
2018-05-27T11:21:40.840Z,73504.00
2018-05-27T11:22:40.879Z,83520.00
2018-05-27T11:23:40.951Z,95552.00
2018-05-27T11:24:40.987Z,108512.00
2018-05-27T11:25:41.051Z,116800.00
2018-05-27T11:26:41.097Z,123616.00
2018-05-27T11:27:41.187Z,126144.00
2018-05-27T11:28:41.211Z,118976.00
2018-05-27T11:29:41.266Z,113472.00
2018-05-27T11:30:41.322Z,112224.00
2018-05-27T11:31:41.383Z,103552.00
2018-05-27T11:32:41.513Z,97920.00
2018-05-27T11:33:41.491Z,95520.00
2018-05-27T11:34:41.547Z,92672.00
2018-05-27T11:35:41.606Z,99456.00
2018-05-27T11:36:41.663Z,107904.00
2018-05-27T11:37:41.748Z,108544.00
2018-05-27T11:38:41.778Z,107648.00
2018-05-27T11:39:41.829Z,106368.00
2018-05-27T11:40:41.887Z,112064.00
2018-05-27T11:41:41.944Z,104288.00
2018-05-27T11:42:42.026Z,105984.00
2018-05-27T11:43:42.061Z,99520.00
2018-05-27T11:44:42.142Z,94496.00
2018-05-27T11:45:42.176Z,95680.00
2018-05-27T11:46:42.229Z,93536.00
2018-05-27T11:47:42.287Z,97568.00
2018-05-27T11:48:42.444Z,99680.00
2018-05-27T11:49:42.400Z,105696.00
2018-05-27T11:50:42.950Z,104544.00
2018-05-27T11:51:42.518Z,112064.00
2018-05-27T11:52:42.589Z,115296.00
2018-05-27T11:53:42.662Z,115456.00
2018-05-27T11:54:42.689Z,103520.00
2018-05-27T11:55:42.747Z,95456.00
2018-05-27T11:56:42.804Z,99552.00
2018-05-27T11:57:42.866Z,95616.00
2018-05-27T11:58:42.947Z,96704.00
2018-05-27T11:59:42.978Z,98880.00
2018-05-27T12:00:43.060Z,96608.00
2018-05-27T12:01:43.104Z,102976.00
2018-05-27T12:02:44.957Z,105952.00
2018-05-27T12:03:43.207Z,110080.00
2018-05-27T12:04:43.263Z,109856.00
2018-05-27T12:05:43.348Z,107072.00
2018-05-27T12:06:43.384Z,103200.00
2018-05-27T12:07:43.439Z,104448.00
2018-05-27T12:08:43.499Z,104096.00
2018-05-27T12:09:43.798Z,104000.00
2018-05-27T12:10:43.612Z,110560.00
2018-05-27T12:11:43.713Z,115424.00